Time;durP1;ratioP1;P1;durP2;ratioP2;P2;SDS_P1;SDS_P2;PMS_P1;PMS_P2;Temp;Humidity;BMP_temperature;BMP_pressure;BME280_temperature;BME280_humidity;BME280_pressure;Samples;Min_cycle;Max_cycle;Signal;HPM_P1;HPM_P2
2023/07/16 00:01:53;;;;;;;9.98;5.13;;;21.20;99.90;;;;;;5013334;28;20066;-62
2023/07/16 00:04:20;;;;;;;7.30;5.07;;;21.00;99.90;;;;;;5011394;28;20045;-62
2023/07/16 00:06:47;;;;;;;11.32;5.25;;;20.90;99.90;;;;;;5012449;28;20104;-62
2023/07/16 00:09:14;;;;;;;10.32;4.90;;;20.80;99.90;;;;;;5011557;28;20058;-62
2023/07/16 00:11:41;;;;;;;;;;;20.70;99.90;;;;;;5013356;28;20045;-62
2023/07/16 00:14:11;;;;;;;5.80;4.65;;;20.60;99.90;;;;;;5011177;28;19921;-61
2023/07/16 00:16:38;;;;;;;7.45;4.75;;;20.60;99.90;;;;;;5012875;28;20045;-61
2023/07/16 00:19:05;;;;;;;7.88;4.63;;;20.60;99.90;;;;;;5011872;28;20086;-62
2023/07/16 00:21:32;;;;;;;9.38;5.05;;;20.60;99.90;;;;;;5012846;28;20100;-62
2023/07/16 00:23:59;;;;;;;7.35;4.60;;;20.60;99.90;;;;;;5011595;28;20045;-61
2023/07/16 00:26:26;;;;;;;10.27;4.97;;;20.60;99.90;;;;;;5012689;28;20128;-61
2023/07/16 00:28:52;;;;;;;7.32;4.78;;;20.70;99.90;;;;;;5012451;28;20049;-61
2023/07/16 00:31:19;;;;;;;6.82;4.18;;;21.10;99.90;;;;;;5009516;28;20050;-61
2023/07/16 00:33:46;;;;;;;7.53;4.35;;;21.60;99.90;;;;;;5009549;28;20553;-61
2023/07/16 00:36:13;;;;;;;6.78;4.82;;;21.90;99.90;;;;;;5011867;28;20048;-59
2023/07/16 00:38:41;;;;;;;10.60;5.28;;;22.10;99.90;;;;;;5011008;28;20038;-62
2023/07/16 00:41:09;;;;;;;8.15;4.47;;;22.30;99.90;;;;;;4980353;28;20039;-61
2023/07/16 00:43:35;;;;;;;;;;;22.50;99.90;;;;;;4998013;28;20097;-61
2023/07/16 00:46:02;;;;;;;11.38;4.47;;;22.50;99.90;;;;;;4998063;28;19929;-61
2023/07/16 00:48:29;;;;;;;9.40;4.07;;;22.60;99.90;;;;;;4999502;28;20054;-62
2023/07/16 00:50:56;;;;;;;;;;;22.70;99.90;;;;;;5010329;28;20484;-61
2023/07/16 00:53:23;;;;;;;8.30;4.00;;;22.80;99.90;;;;;;5011807;28;20369;-62
2023/07/16 00:55:50;;;;;;;;;;;22.90;99.90;;;;;;5011112;28;20100;-62
2023/07/16 00:58:17;;;;;;;8.40;3.78;;;22.90;99.90;;;;;;5012715;28;19921;-62
2023/07/16 01:00:44;;;;;;;5.32;3.40;;;22.90;99.90;;;;;;5008871;28;20623;-61
2023/07/16 01:03:14;;;;;;;6.75;3.80;;;22.90;99.90;;;;;;5009258;28;20164;-61
2023/07/16 01:05:47;;;;;;;9.40;4.30;;;22.90;99.90;;;;;;5010735;28;20034;-61
2023/07/16 01:08:21;;;;;;;5.40;3.83;;;22.80;99.90;;;;;;5009662;28;20046;-60
2023/07/16 01:10:49;;;;;;;7.40;3.28;;;22.80;99.90;;;;;;5010900;28;20041;-61
2023/07/16 01:13:16;;;;;;;4.97;3.90;;;22.70;99.90;;;;;;5008911;28;20049;-61
2023/07/16 01:15:43;;;;;;;6.75;3.92;;;22.70;99.90;;;;;;5008215;28;20497;-62
2023/07/16 01:18:10;;;;;;;5.03;3.95;;;22.70;99.90;;;;;;5010725;28;20049;-61
2023/07/16 01:20:37;;;;;;;8.70;4.10;;;22.70;99.90;;;;;;5011243;28;20048;-61
2023/07/16 01:23:09;;;;;;;10.98;4.65;;;22.60;99.90;;;;;;4987754;28;20047;-62
2023/07/16 01:25:45;;;;;;;6.78;3.97;;;22.60;99.90;;;;;;5008346;28;20120;-61
2023/07/16 01:28:50;;;;;;;6.35;4.20;;;22.50;99.90;;;;;;5011459;28;20054;-61
2023/07/16 01:31:18;;;;;;;8.70;4.13;;;22.50;99.90;;;;;;5003770;28;20048;-61
2023/07/16 01:33:46;;;;;;;7.00;3.92;;;22.40;99.90;;;;;;5011371;28;20427;-61
2023/07/16 01:36:14;;;;;;;6.35;4.40;;;22.40;99.90;;;;;;5010415;28;20034;-61
2023/07/16 01:38:41;;;;;;;5.45;4.00;;;22.40;99.90;;;;;;5011241;28;20038;-61
2023/07/16 01:41:07;;;;;;;5.88;4.35;;;22.30;99.90;;;;;;5009573;28;20042;-60
2023/07/16 01:43:34;;;;;;;6.43;4.18;;;22.20;99.90;;;;;;5011258;28;20394;-62
2023/07/16 01:46:01;;;;;;;14.18;4.80;;;22.20;99.90;;;;;;4997069;28;20054;-61
2023/07/16 01:48:32;;;;;;;6.90;4.28;;;22.20;99.90;;;;;;4994945;28;20042;-61
2023/07/16 01:50:59;;;;;;;14.05;5.18;;;22.10;99.90;;;;;;4997599;28;20108;-61
2023/07/16 01:53:25;;;;;;;;;;;22.20;99.90;;;;;;5013684;28;20057;-61
2023/07/16 01:55:52;;;;;;;10.32;4.60;;;22.10;99.90;;;;;;5014207;28;19928;-61
2023/07/16 01:58:20;;;;;;;9.93;4.90;;;22.10;99.90;;;;;;5013499;28;20058;-59
2023/07/16 02:00:50;;;;;;;6.90;4.43;;;22.10;99.90;;;;;;5014122;28;20048;-59
2023/07/16 02:03:17;;;;;;;6.97;4.95;;;22.10;99.90;;;;;;5009900;28;20053;-61
2023/07/16 02:05:44;;;;;;;10.18;5.40;;;22.10;99.90;;;;;;5011767;28;20128;-61
2023/07/16 02:08:10;;;;;;;8.68;4.90;;;22.00;99.90;;;;;;5011603;28;20038;-60
2023/07/16 02:10:37;;;;;;;5.75;4.60;;;22.00;99.90;;;;;;5009963;28;20045;-61
2023/07/16 02:13:04;;;;;;;6.72;4.53;;;22.00;99.90;;;;;;5009825;28;20052;-62
2023/07/16 02:15:30;;;;;;;5.32;4.80;;;22.00;99.90;;;;;;5009643;28;20069;-61
2023/07/16 02:17:57;;;;;;;7.20;4.30;;;22.00;99.90;;;;;;5012822;28;20041;-62
2023/07/16 02:20:24;;;;;;;8.65;4.20;;;22.00;99.90;;;;;;4994105;28;20046;-62
2023/07/16 02:22:51;;;;;;;7.40;4.78;;;22.10;99.90;;;;;;5013827;28;20033;-61
2023/07/16 02:25:18;;;;;;;9.60;4.25;;;22.00;99.90;;;;;;5014082;28;20053;-62
2023/07/16 02:27:47;;;;;;;9.65;4.78;;;22.00;99.90;;;;;;4995140;28;20050;-62
2023/07/16 02:30:15;;;;;;;8.18;4.43;;;22.00;99.90;;;;;;5013286;28;20050;-59
2023/07/16 02:32:43;;;;;;;8.93;4.45;;;22.00;99.90;;;;;;5011221;28;20069;-61
2023/07/16 02:35:10;;;;;;;7.85;4.60;;;21.90;99.90;;;;;;5013070;28;20085;-62
2023/07/16 02:37:36;;;;;;;;;;;21.90;99.90;;;;;;5014935;28;20136;-61
2023/07/16 02:40:05;;;;;;;6.82;4.30;;;21.90;99.90;;;;;;5013296;28;19922;-60
2023/07/16 02:42:32;;;;;;;5.78;4.15;;;21.90;99.90;;;;;;4993539;28;20061;-61
2023/07/16 02:44:59;;;;;;;5.03;4.00;;;21.90;99.90;;;;;;5013603;28;20057;-61
2023/07/16 02:47:25;;;;;;;8.43;4.75;;;21.90;99.90;;;;;;5014306;28;20038;-61
2023/07/16 02:49:52;;;;;;;4.78;3.97;;;21.90;99.90;;;;;;5014048;28;20072;-61
2023/07/16 02:52:19;;;;;;;7.35;4.35;;;21.90;99.90;;;;;;5012838;28;20056;-61
2023/07/16 02:54:46;;;;;;;9.30;3.75;;;21.90;99.90;;;;;;5014270;28;20092;-61
2023/07/16 02:57:12;;;;;;;9.38;4.43;;;21.80;99.90;;;;;;5011582;28;20052;-61
2023/07/16 02:59:39;;;;;;;9.85;4.18;;;21.80;99.90;;;;;;5011691;28;20038;-61
2023/07/16 03:02:06;;;;;;;6.78;4.38;;;21.80;99.90;;;;;;5012728;28;20052;-62
2023/07/16 03:04:33;;;;;;;7.95;4.03;;;21.80;99.90;;;;;;5012520;28;20038;-62
2023/07/16 03:06:59;;;;;;;8.30;4.43;;;21.80;99.90;;;;;;5001222;28;20389;-62
2023/07/16 03:09:26;;;;;;;6.03;4.38;;;21.80;99.90;;;;;;5007844;28;20047;-61
2023/07/16 03:11:53;;;;;;;7.10;4.90;;;21.70;99.90;;;;;;5011839;28;20430;-61
2023/07/16 03:14:20;;;;;;;6.53;4.43;;;21.70;99.90;;;;;;5007438;28;20054;-62
2023/07/16 03:16:46;;;;;;;5.75;4.35;;;21.70;99.90;;;;;;5010793;28;20142;-61
2023/07/16 03:19:14;;;;;;;;;;;21.60;99.90;;;;;;5011420;28;20069;-62
2023/07/16 03:21:40;;;;;;;5.53;4.10;;;21.50;99.90;;;;;;5009620;28;19922;-62
2023/07/16 03:24:08;;;;;;;8.25;4.35;;;21.50;99.90;;;;;;5011724;28;20041;-61
2023/07/16 03:26:35;;;;;;;7.22;4.47;;;21.40;99.90;;;;;;5009220;28;20065;-62
2023/07/16 03:29:02;;;;;;;8.98;4.45;;;21.50;99.90;;;;;;5010842;28;20049;-62
2023/07/16 03:31:29;;;;;;;;;;;21.40;99.90;;;;;;5009286;28;20093;-61
2023/07/16 03:33:56;;;;;;;5.97;4.38;;;21.50;99.90;;;;;;5011178;28;19925;-62
2023/07/16 03:36:27;;;;;;;7.32;4.60;;;21.50;99.90;;;;;;5011777;28;20673;-62
2023/07/16 03:38:54;;;;;;;6.13;4.22;;;21.50;99.90;;;;;;5011485;28;20050;-62
2023/07/16 03:41:21;;;;;;;7.95;4.30;;;21.50;99.90;;;;;;5012027;28;20046;-61
2023/07/16 03:43:47;;;;;;;5.40;4.50;;;21.40;99.90;;;;;;5010639;28;20048;-61
2023/07/16 03:46:19;;;;;;;7.70;4.55;;;21.40;99.90;;;;;;5010658;28;20050;-61
2023/07/16 03:48:46;;;;;;;7.90;4.53;;;21.40;99.90;;;;;;5013222;28;20050;-62
2023/07/16 03:51:14;;;;;;;5.72;4.03;;;21.40;99.90;;;;;;5010755;28;20042;-62
2023/07/16 03:53:41;;;;;;;;;;;21.30;99.90;;;;;;5013694;28;20133;-62
2023/07/16 03:56:08;;;;;;;7.60;4.78;;;21.40;99.90;;;;;;5007917;28;19969;-61
2023/07/16 03:58:35;;;;;;;8.40;4.65;;;21.40;99.90;;;;;;5008271;28;20487;-62
2023/07/16 04:01:04;;;;;;;10.48;4.47;;;21.40;99.90;;;;;;5011056;28;20700;-61
2023/07/16 04:03:31;;;;;;;7.63;4.53;;;21.30;99.90;;;;;;5011661;28;20411;-62
2023/07/16 04:06:05;;;;;;;;;;;21.40;99.90;;;;;;5011996;28;20053;-61
2023/07/16 04:08:32;;;;;;;8.25;5.05;;;21.30;99.90;;;;;;5012927;28;20283;-62
2023/07/16 04:10:59;;;;;;;8.98;4.95;;;21.30;99.90;;;;;;5011599;28;20037;-62
2023/07/16 04:13:25;;;;;;;6.85;4.63;;;21.40;99.90;;;;;;5012691;28;20037;-61
2023/07/16 04:15:57;;;;;;;11.10;5.32;;;21.40;99.90;;;;;;5012930;28;20037;-62
2023/07/16 04:18:24;;;;;;;6.75;4.45;;;21.40;99.90;;;;;;5011018;28;20073;-61
2023/07/16 04:20:51;;;;;;;6.50;4.72;;;21.40;99.90;;;;;;5012735;28;20052;-61
2023/07/16 04:23:19;;;;;;;10.23;5.05;;;21.40;99.90;;;;;;5011629;28;20052;-61
2023/07/16 04:25:46;;;;;;;9.60;4.47;;;21.40;99.90;;;;;;5012850;28;20038;-62
2023/07/16 04:28:13;;;;;;;6.22;4.70;;;21.40;99.90;;;;;;5011715;28;20067;-61
2023/07/16 04:30:39;;;;;;;6.07;4.90;;;21.40;99.90;;;;;;5008649;28;20047;-62
2023/07/16 04:33:06;;;;;;;9.18;4.47;;;21.40;99.90;;;;;;5012336;28;20056;-61
2023/07/16 04:35:33;;;;;;;6.85;4.43;;;21.40;99.90;;;;;;5012222;28;20048;-61
2023/07/16 04:38:00;;;;;;;;;;;21.50;99.90;;;;;;5004723;28;20044;-62
2023/07/16 04:40:29;;;;;;;10.85;4.70;;;21.60;99.90;;;;;;5021956;23;19937;-64
2023/07/16 04:42:56;;;;;;;6.68;5.18;;;21.50;99.90;;;;;;4990418;28;20848;-65
2023/07/16 04:45:23;;;;;;;8.02;5.00;;;21.60;99.90;;;;;;4976986;28;20455;-65
2023/07/16 04:47:50;;;;;;;10.38;4.93;;;21.90;99.90;;;;;;4977484;28;20050;-65
2023/07/16 04:50:17;;;;;;;5.65;4.30;;;22.00;99.90;;;;;;4976573;28;20043;-65
2023/07/16 04:52:44;;;;;;;8.07;4.90;;;21.50;99.90;;;;;;4979737;28;20467;-67
2023/07/16 04:55:12;;;;;;;6.38;4.45;;;21.50;99.90;;;;;;4981167;28;20042;-65
2023/07/16 04:57:39;;;;;;;7.55;4.72;;;21.90;99.90;;;;;;4977765;28;20533;-65
2023/07/16 05:00:08;;;;;;;5.72;4.70;;;20.80;99.90;;;;;;4976954;28;20448;-67
2023/07/16 05:02:34;;;;;;;8.63;4.95;;;21.50;99.90;;;;;;4977167;28;20039;-65
2023/07/16 05:05:02;;;;;;;6.55;5.22;;;21.50;99.90;;;;;;4977429;28;20039;-65
2023/07/16 05:07:28;;;;;;;9.65;4.70;;;21.50;99.90;;;;;;4976824;28;20049;-65
2023/07/16 05:09:55;;;;;;;8.02;5.07;;;21.50;99.90;;;;;;4976839;28;20408;-65
2023/07/16 05:12:22;;;;;;;9.05;5.00;;;21.60;99.90;;;;;;4977411;28;20057;-65
2023/07/16 05:14:49;;;;;;;13.07;5.40;;;21.40;99.90;;;;;;4975956;28;20050;-65
2023/07/16 05:17:16;;;;;;;8.73;4.80;;;21.40;99.90;;;;;;4977375;28;20070;-65
2023/07/16 05:19:43;;;;;;;6.78;5.07;;;21.40;99.90;;;;;;4979137;28;20054;-65
2023/07/16 05:22:10;;;;;;;11.30;5.60;;;21.40;99.90;;;;;;4982525;28;20039;-65
2023/07/16 05:24:37;;;;;;;7.03;4.50;;;21.40;99.90;;;;;;4978036;28;20034;-66
2023/07/16 05:27:04;;;;;;;7.35;5.07;;;21.40;99.90;;;;;;4978421;28;20381;-65
2023/07/16 05:29:31;;;;;;;8.90;5.28;;;21.40;99.90;;;;;;4980672;28;20053;-64
2023/07/16 05:31:58;;;;;;;8.02;5.07;;;21.60;99.90;;;;;;4978123;28;20046;-65
2023/07/16 05:34:25;;;;;;;9.88;5.35;;;21.50;99.90;;;;;;4980211;28;20073;-65
2023/07/16 05:36:54;;;;;;;12.00;5.50;;;21.50;99.90;;;;;;4975397;28;20070;-65
2023/07/16 05:39:22;;;;;;;8.30;4.93;;;21.30;99.90;;;;;;4984997;28;20114;-64
2023/07/16 05:41:49;;;;;;;9.68;5.45;;;21.50;99.90;;;;;;4985906;28;20042;-67
2023/07/16 05:44:16;;;;;;;9.18;5.05;;;21.60;99.90;;;;;;4996729;28;20399;-65
2023/07/16 05:46:43;;;;;;;6.57;4.85;;;21.30;99.90;;;;;;4996104;28;20062;-65
2023/07/16 05:49:10;;;;;;;7.03;5.13;;;21.60;99.90;;;;;;4996191;28;20054;-64
2023/07/16 05:51:37;;;;;;;8.63;5.45;;;21.60;99.90;;;;;;4996050;28;20372;-67
2023/07/16 05:54:04;;;;;;;8.52;5.38;;;21.60;99.90;;;;;;4995864;28;20049;-67
2023/07/16 05:56:30;;;;;;;11.80;5.78;;;21.80;99.90;;;;;;5000102;28;20042;-65
2023/07/16 05:58:57;;;;;;;8.80;5.38;;;21.70;99.90;;;;;;4996190;28;20089;-65
2023/07/16 06:01:24;;;;;;;8.55;5.28;;;21.60;99.90;;;;;;5003977;28;20045;-67
2023/07/16 06:03:51;;;;;;;10.85;5.43;;;21.70;99.90;;;;;;4995461;28;20049;-67
2023/07/16 06:06:18;;;;;;;10.75;5.93;;;21.90;99.90;;;;;;4996094;28;20125;-65
2023/07/16 06:08:45;;;;;;;8.48;5.93;;;21.80;99.90;;;;;;4996438;28;20125;-65
2023/07/16 06:11:13;;;;;;;9.32;5.78;;;21.60;99.90;;;;;;4996537;28;20534;-67
2023/07/16 06:13:39;;;;;;;9.95;5.32;;;21.50;99.90;;;;;;4995449;28;20050;-65
2023/07/16 06:16:06;;;;;;;7.05;5.57;;;21.50;99.90;;;;;;4995930;28;20048;-65
2023/07/16 06:18:33;;;;;;;8.15;5.60;;;21.40;99.90;;;;;;5004151;28;20038;-65
2023/07/16 06:21:00;;;;;;;9.05;6.05;;;21.40;99.90;;;;;;4994886;28;20074;-65
2023/07/16 06:23:27;;;;;;;7.57;5.90;;;21.20;99.90;;;;;;4998698;28;20137;-65
2023/07/16 06:25:55;;;;;;;13.30;6.30;;;21.20;99.90;;;;;;4994335;28;20042;-65
2023/07/16 06:28:23;;;;;;;8.38;6.60;;;21.10;99.90;;;;;;4994772;28;20042;-65
2023/07/16 06:30:51;;;;;;;13.48;6.93;;;20.90;99.90;;;;;;4994384;28;20109;-65
2023/07/16 06:33:19;;;;;;;10.15;6.32;;;20.80;99.90;;;;;;4994459;28;20074;-65
2023/07/16 06:35:47;;;;;;;10.25;6.10;;;20.80;99.90;;;;;;4997656;28;20113;-65
2023/07/16 06:38:14;;;;;;;8.75;5.22;;;20.60;99.90;;;;;;4998212;28;20066;-65
2023/07/16 06:40:48;;;;;;;7.57;4.78;;;20.50;99.90;;;;;;4998759;28;20050;-65
2023/07/16 06:43:16;;;;;;;7.57;4.18;;;20.40;99.90;;;;;;4997356;28;20042;-65
2023/07/16 06:45:43;;;;;;;5.32;3.67;;;20.40;99.90;;;;;;5001377;28;20542;-65
2023/07/16 06:48:10;;;;;;;5.25;3.10;;;20.30;99.90;;;;;;5004929;28;20404;-65
2023/07/16 06:50:37;;;;;;;4.35;3.10;;;20.20;99.90;;;;;;4997799;28;20046;-65
2023/07/16 06:53:03;;;;;;;5.93;2.90;;;20.20;99.90;;;;;;4997013;28;20491;-65
2023/07/16 06:55:30;;;;;;;6.00;2.78;;;20.10;99.90;;;;;;4998819;28;20074;-65
2023/07/16 06:57:57;;;;;;;3.15;2.45;;;20.10;99.90;;;;;;4997438;28;20081;-65
2023/07/16 07:00:24;;;;;;;5.05;2.67;;;20.00;99.90;;;;;;4998243;28;20038;-65
2023/07/16 07:02:50;;;;;;;3.35;2.88;;;19.90;99.90;;;;;;4997748;28;20495;-65
2023/07/16 07:05:17;;;;;;;8.73;3.30;;;20.00;99.90;;;;;;5006994;28;20034;-65
2023/07/16 07:07:45;;;;;;;2.85;2.30;;;19.90;99.90;;;;;;4998915;28;20487;-65
2023/07/16 07:10:12;;;;;;;5.32;2.60;;;20.00;99.90;;;;;;5005493;28;20070;-65
2023/07/16 07:12:40;;;;;;;5.35;2.75;;;20.00;99.90;;;;;;5006692;28;20464;-65
2023/07/16 07:15:07;;;;;;;;;;;20.00;99.90;;;;;;4997920;28;20427;-65
2023/07/16 07:17:34;;;;;;;4.43;3.22;;;20.00;99.90;;;;;;4997832;28;19953;-65
2023/07/16 07:20:01;;;;;;;;;;;20.10;99.90;;;;;;4989871;28;20136;-65
2023/07/16 07:22:28;;;;;;;3.63;3.03;;;20.10;99.90;;;;;;5006222;28;20293;-65
2023/07/16 07:24:55;;;;;;;6.10;3.50;;;20.10;99.90;;;;;;5001479;28;20118;-65
2023/07/16 07:27:22;;;;;;;4.72;3.22;;;20.10;99.90;;;;;;4997859;28;20066;-66
2023/07/16 07:29:51;;;;;;;6.25;3.90;;;20.20;99.90;;;;;;4998126;28;20042;-66
2023/07/16 07:32:20;;;;;;;4.43;3.38;;;20.20;99.90;;;;;;4998958;28;20046;-66
2023/07/16 07:34:48;;;;;;;5.28;3.53;;;20.10;99.90;;;;;;4998020;28;20042;-66
2023/07/16 07:37:14;;;;;;;;;;;20.30;99.90;;;;;;4999972;28;20097;-66
2023/07/16 07:39:41;;;;;;;5.47;3.60;;;20.00;99.90;;;;;;4995151;28;20016;-66
2023/07/16 07:42:09;;;;;;;5.95;3.60;;;20.00;99.90;;;;;;4998001;28;20133;-66
2023/07/16 07:44:36;;;;;;;6.00;4.25;;;20.00;99.90;;;;;;5002188;28;20042;-66
2023/07/16 07:47:04;;;;;;;5.72;4.05;;;20.10;99.90;;;;;;4996895;28;20049;-66
2023/07/16 07:49:31;;;;;;;4.90;3.92;;;20.10;99.90;;;;;;4996570;28;20035;-66
2023/07/16 07:51:58;;;;;;;6.78;4.60;;;20.30;99.90;;;;;;4999230;28;20042;-66
2023/07/16 07:54:25;;;;;;;6.82;4.70;;;20.20;99.90;;;;;;4999580;28;20039;-66
2023/07/16 07:56:51;;;;;;;6.63;4.32;;;20.40;99.90;;;;;;4998450;28;20069;-66
2023/07/16 07:59:18;;;;;;;4.95;4.22;;;20.40;99.90;;;;;;4999527;28;20052;-66
2023/07/16 08:01:45;;;;;;;6.00;4.05;;;20.50;99.90;;;;;;4997190;28;20054;-66
2023/07/16 08:04:12;;;;;;;5.25;3.92;;;20.60;99.90;;;;;;4996944;28;20049;-66
2023/07/16 08:06:39;;;;;;;;;;;20.90;99.90;;;;;;4996543;28;20050;-66
2023/07/16 08:09:06;;;;;;;3.70;3.38;;;21.20;99.90;;;;;;4998335;28;19964;-66
2023/07/16 08:11:33;;;;;;;5.40;3.50;;;21.40;99.90;;;;;;4997842;28;20057;-66
2023/07/16 08:13:59;;;;;;;3.25;2.95;;;21.90;99.90;;;;;;4998743;28;20066;-66
2023/07/16 08:16:26;;;;;;;3.83;3.25;;;22.10;99.90;;;;;;4999081;28;20054;-66
2023/07/16 08:18:53;;;;;;;2.80;2.50;;;22.00;99.90;;;;;;4999280;28;20048;-66
2023/07/16 08:21:20;;;;;;;3.33;2.42;;;22.40;99.90;;;;;;4998722;28;20061;-66
2023/07/16 08:23:50;;;;;;;;;;;22.60;99.90;;;;;;5007512;28;20046;-66
2023/07/16 08:26:17;;;;;;;3.92;2.88;;;23.00;99.90;;;;;;4981647;28;19921;-66
2023/07/16 08:28:44;;;;;;;3.78;2.90;;;22.90;99.90;;;;;;4980838;28;20138;-66
2023/07/16 08:31:12;;;;;;;3.50;2.78;;;23.00;99.90;;;;;;4998217;28;20052;-66
2023/07/16 08:33:40;;;;;;;3.75;2.70;;;23.40;99.90;;;;;;4996308;28;20049;-66
2023/07/16 08:36:06;;;;;;;;;;;24.30;99.90;;;;;;4997614;28;20054;-66
2023/07/16 08:38:33;;;;;;;4.00;3.03;;;24.20;99.90;;;;;;5000893;28;19922;-66
2023/07/16 08:41:01;;;;;;;3.15;2.85;;;24.20;99.90;;;;;;4997613;28;20073;-66
2023/07/16 08:43:29;;;;;;;5.25;3.25;;;24.10;99.90;;;;;;5001851;28;20085;-66
2023/07/16 08:45:56;;;;;;;3.78;3.10;;;24.10;99.90;;;;;;4996692;28;20467;-66
2023/07/16 08:48:24;;;;;;;3.08;2.50;;;24.30;99.90;;;;;;4997634;28;20507;-66
2023/07/16 08:50:51;;;;;;;2.95;2.70;;;24.30;99.90;;;;;;4980977;28;20046;-66
2023/07/16 08:53:18;;;;;;;3.40;2.80;;;24.30;99.90;;;;;;4996583;28;20027;-66
2023/07/16 08:55:45;;;;;;;4.93;2.35;;;24.60;99.90;;;;;;4995982;28;20088;-66
2023/07/16 08:58:16;;;;;;;2.30;2.10;;;24.40;99.90;;;;;;4996136;28;20044;-66
2023/07/16 09:00:47;;;;;;;;;;;24.50;99.90;;;;;;4997668;28;20042;-66
2023/07/16 09:03:17;;;;;;;2.28;2.00;;;24.60;99.90;;;;;;5000451;28;20299;-66
2023/07/16 09:05:45;;;;;;;3.75;1.80;;;24.60;99.90;;;;;;4996128;28;20084;-66
2023/07/16 09:08:13;;;;;;;3.28;2.25;;;24.60;99.90;;;;;;4996238;28;20039;-66
2023/07/16 09:10:41;;;;;;;4.97;1.77;;;24.50;99.90;;;;;;4998081;28;20046;-66
2023/07/16 09:13:08;;;;;;;2.85;2.00;;;24.30;99.90;;;;;;4995377;28;20132;-66
2023/07/16 09:15:37;;;;;;;2.33;1.80;;;24.90;99.90;;;;;;4999734;28;20522;-66
2023/07/16 09:18:04;;;;;;;5.15;1.75;;;24.50;99.90;;;;;;4996927;28;20042;-66
2023/07/16 09:20:31;;;;;;;2.33;1.65;;;24.40;99.90;;;;;;4996126;28;20416;-66
2023/07/16 09:22:59;;;;;;;2.15;1.95;;;24.30;99.90;;;;;;4993694;28;20054;-66
2023/07/16 09:25:29;;;;;;;1.95;1.58;;;24.50;99.90;;;;;;4993903;28;20085;-66
2023/07/16 09:28:00;;;;;;;2.60;1.83;;;24.50;99.90;;;;;;4997218;28;20142;-66
2023/07/16 09:30:34;;;;;;;4.28;1.80;;;24.50;99.90;;;;;;4992955;28;20093;-66
2023/07/16 09:33:12;;;;;;;2.83;2.35;;;24.20;99.90;;;;;;5003469;28;20129;-66
2023/07/16 09:35:39;;;;;;;4.72;1.67;;;24.10;99.90;;;;;;4997174;28;20052;-66
2023/07/16 09:38:08;;;;;;;4.95;1.75;;;23.90;99.90;;;;;;4993522;28;20042;-66
2023/07/16 09:40:39;;;;;;;2.70;1.60;;;23.90;99.90;;;;;;4996259;28;20042;-66
2023/07/16 09:43:06;;;;;;;4.82;1.80;;;23.80;99.90;;;;;;4994269;28;20049;-66
2023/07/16 09:45:33;;;;;;;3.70;1.80;;;23.90;99.90;;;;;;4996179;28;20116;-65
2023/07/16 09:48:00;;;;;;;2.35;1.40;;;23.90;99.90;;;;;;4993479;28;20035;-65
2023/07/16 09:50:33;;;;;;;2.00;1.48;;;23.80;99.90;;;;;;4996833;28;20038;-66
2023/07/16 09:53:00;;;;;;;2.50;1.23;;;24.10;99.90;;;;;;5004663;28;20498;-66
2023/07/16 09:55:27;;;;;;;2.03;1.45;;;24.30;99.90;;;;;;4994857;28;20069;-66
2023/07/16 09:57:57;;;;;;;1.95;1.30;;;24.50;99.90;;;;;;4962067;28;20454;-66
2023/07/16 10:00:25;;;;;;;2.97;1.73;;;24.70;99.90;;;;;;4995089;28;20049;-66
2023/07/16 10:02:52;;;;;;;2.95;1.88;;;25.00;99.90;;;;;;4996323;28;20415;-66
2023/07/16 10:05:27;;;;;;;4.57;1.60;;;25.10;99.90;;;;;;5001614;28;20034;-65
2023/07/16 10:07:59;;;;;;;1.70;1.60;;;25.30;99.90;;;;;;5004462;28;20038;-66
2023/07/16 10:10:52;;;;;;;1.90;1.52;;;25.40;99.90;;;;;;4999267;28;20038;-66
2023/07/16 10:13:22;;;;;;;2.15;1.70;;;25.40;99.90;;;;;;5002772;28;20044;-66
2023/07/16 10:15:59;;;;;;;1.60;1.48;;;25.50;99.90;;;;;;5012860;28;20038;-66
2023/07/16 10:18:30;;;;;;;2.08;1.55;;;25.60;99.90;;;;;;4995303;28;20095;-66
2023/07/16 10:21:07;;;;;;;1.95;1.75;;;25.60;99.90;;;;;;5006729;28;20093;-65
2023/07/16 10:23:42;;;;;;;2.88;1.83;;;25.70;99.90;;;;;;4999567;28;20384;-66
2023/07/16 10:26:12;;;;;;;3.78;2.17;;;25.60;99.90;;;;;;4996347;28;20042;-65
2023/07/16 10:28:44;;;;;;;5.00;2.30;;;25.60;99.90;;;;;;4999775;28;20077;-65
2023/07/16 10:31:20;;;;;;;;;;;25.60;99.90;;;;;;4988357;28;20081;-66
2023/07/16 10:34:04;;;;;;;2.63;1.95;;;25.60;99.90;;;;;;4999211;28;19933;-66
2023/07/16 10:36:41;;;;;;;3.78;1.90;;;25.60;99.90;;;;;;5005514;28;20124;-66
2023/07/16 10:39:08;;;;;;;1.83;1.73;;;25.60;99.90;;;;;;4998112;28;20046;-66
2023/07/16 10:41:35;;;;;;;229.15;79.13;;;25.50;99.90;;;;;;4998740;28;20038;-66
2023/07/16 10:44:03;;;;;;;3.97;2.15;;;25.50;99.90;;;;;;5000197;28;20050;-66
2023/07/16 10:46:31;;;;;;;3.95;2.15;;;25.40;99.90;;;;;;4999379;28;20035;-66
2023/07/16 10:48:59;;;;;;;2.20;1.80;;;26.00;99.90;;;;;;4996748;28;20053;-66
2023/07/16 10:51:26;;;;;;;;;;;25.50;99.90;;;;;;4999720;28;20057;-66
2023/07/16 10:53:55;;;;;;;2.03;1.90;;;25.50;99.90;;;;;;4998160;28;19996;-66
2023/07/16 10:56:22;;;;;;;1.73;1.60;;;25.90;99.90;;;;;;4998919;28;20038;-66
2023/07/16 10:58:49;;;;;;;1.60;1.50;;;25.60;99.90;;;;;;4996765;28;20070;-66
2023/07/16 11:01:17;;;;;;;4.53;1.67;;;25.40;99.90;;;;;;4998546;28;20053;-66
2023/07/16 11:03:44;;;;;;;3.70;1.60;;;25.60;99.90;;;;;;4998250;28;20058;-65
2023/07/16 11:06:15;;;;;;;2.03;1.55;;;25.70;99.90;;;;;;4995610;28;20073;-65
2023/07/16 11:08:42;;;;;;;1.70;1.50;;;25.70;99.90;;;;;;4995980;28;20034;-66
2023/07/16 11:11:09;;;;;;;2.13;1.73;;;25.80;99.90;;;;;;4996581;28;20046;-66
2023/07/16 11:13:36;;;;;;;2.40;1.75;;;25.80;99.90;;;;;;4997089;28;20039;-66
2023/07/16 11:16:08;;;;;;;3.50;1.58;;;25.90;99.90;;;;;;4996613;28;20065;-66
2023/07/16 11:18:35;;;;;;;1.70;1.60;;;25.90;99.90;;;;;;4996949;28;20046;-66
2023/07/16 11:21:03;;;;;;;1.60;1.50;;;25.90;99.90;;;;;;4995141;28;20042;-65
2023/07/16 11:23:34;;;;;;;1.63;1.52;;;25.90;99.90;;;;;;4986110;28;20045;-66
2023/07/16 11:26:04;;;;;;;3.25;1.70;;;26.00;99.90;;;;;;4996177;28;20054;-66
2023/07/16 11:28:42;;;;;;;1.52;1.42;;;25.90;99.90;;;;;;4995834;28;20042;-66
2023/07/16 11:31:16;;;;;;;1.50;1.40;;;26.10;99.90;;;;;;4996738;28;20121;-66
2023/07/16 11:33:46;;;;;;;1.70;1.30;;;26.20;99.90;;;;;;5001593;28;20050;-65
2023/07/16 11:36:13;;;;;;;3.30;1.40;;;26.20;99.90;;;;;;4995473;28;20050;-65
2023/07/16 11:38:41;;;;;;;2.50;2.08;;;26.20;99.90;;;;;;4994642;28;20046;-65
2023/07/16 11:41:08;;;;;;;;;;;26.10;99.90;;;;;;4998191;28;20039;-65
2023/07/16 11:43:36;;;;;;;1.67;1.52;;;26.10;99.90;;;;;;4996929;28;19922;-65
2023/07/16 11:46:05;;;;;;;2.92;1.95;;;26.10;99.90;;;;;;4997054;28;20042;-65
2023/07/16 11:48:32;;;;;;;2.08;1.42;;;26.20;99.90;;;;;;4995928;28;20038;-65
2023/07/16 11:50:59;;;;;;;;;;;26.20;99.90;;;;;;4985281;28;20053;-65
2023/07/16 11:53:26;;;;;;;2.45;1.83;;;26.30;99.90;;;;;;4985473;28;19926;-66
2023/07/16 11:55:53;;;;;;;2.70;2.17;;;26.40;99.90;;;;;;4996110;28;20050;-65
2023/07/16 11:58:20;;;;;;;1.60;1.50;;;26.40;99.90;;;;;;4996172;28;20030;-65
2023/07/16 12:00:47;;;;;;;3.00;1.75;;;26.50;99.90;;;;;;4995143;28;20038;-65
2023/07/16 12:03:13;;;;;;;;;;;26.50;99.90;;;;;;4996081;28;20035;-65
2023/07/16 12:05:40;;;;;;;2.15;1.63;;;26.40;99.90;;;;;;4996037;28;19995;-65
2023/07/16 12:08:18;;;;;;;3.47;2.15;;;26.50;99.90;;;;;;4996420;28;20039;-66
2023/07/16 12:10:45;;;;;;;2.05;1.80;;;26.60;99.90;;;;;;4995849;28;20435;-65
2023/07/16 12:13:12;;;;;;;3.67;1.83;;;26.50;99.90;;;;;;4995958;28;20053;-66
2023/07/16 12:15:39;;;;;;;2.88;1.90;;;26.50;99.90;;;;;;4998898;28;20146;-66
2023/07/16 12:18:06;;;;;;;;;;;26.60;99.90;;;;;;4997025;28;20046;-66
2023/07/16 12:20:34;;;;;;;3.22;1.90;;;26.70;99.90;;;;;;4996042;28;19968;-66
2023/07/16 12:23:01;;;;;;;2.35;2.00;;;26.90;99.90;;;;;;4995518;28;20050;-66
2023/07/16 12:25:28;;;;;;;;;;;27.00;99.90;;;;;;4996406;28;20480;-66
2023/07/16 12:27:57;;;;;;;3.30;2.10;;;27.00;99.90;;;;;;4995889;28;19976;-66
2023/07/16 12:30:25;;;;;;;8.20;2.50;;;26.90;99.90;;;;;;4995735;28;20483;-66
2023/07/16 12:32:52;;;;;;;3.80;2.00;;;26.90;99.90;;;;;;4995849;28;20039;-66
2023/07/16 12:35:19;;;;;;;5.05;2.30;;;27.00;99.90;;;;;;4995707;28;20061;-66
2023/07/16 12:37:46;;;;;;;;;;;26.90;99.90;;;;;;4996015;28;20061;-66
2023/07/16 12:40:12;;;;;;;2.88;2.38;;;26.80;99.90;;;;;;4995310;28;19925;-65
2023/07/16 12:42:39;;;;;;;5.07;2.20;;;26.90;99.90;;;;;;5001829;28;20047;-65
2023/07/16 12:45:07;;;;;;;2.90;2.30;;;26.90;99.90;;;;;;4996030;28;20052;-65
2023/07/16 12:47:35;;;;;;;4.65;2.63;;;26.90;99.90;;;;;;4993805;28;20543;-65
2023/07/16 12:50:02;;;;;;;2.88;2.45;;;26.80;99.90;;;;;;4996173;28;20089;-65
2023/07/16 12:52:29;;;;;;;;;;;26.90;99.90;;;;;;4996852;28;20062;-65
2023/07/16 12:54:56;;;;;;;2.33;2.00;;;26.80;99.90;;;;;;4996386;28;19928;-66
2023/07/16 12:57:24;;;;;;;3.55;2.67;;;26.80;99.90;;;;;;5017444;23;20053;-69